Time;durP1;ratioP1;P1;durP2;ratioP2;P2;SDS_P1;SDS_P2;PMS_P1;PMS_P2;Temp;Humidity;BMP_temperature;BMP_pressure;BME280_temperature;BME280_humidity;BME280_pressure;Samples;Min_cycle;Max_cycle;Signal;HPM_P1;HPM_P2
2024/02/09 09:46:31;;;;;;;3.30;1.80;;;;;;;11.42;100.00;96486.72;5109145;28;20552;-87
2024/02/09 09:49:01;;;;;;;2.70;1.80;;;;;;;11.58;100.00;96451.50;5143012;27;40877;-87
2024/02/09 09:51:34;;;;;;;3.03;1.83;;;;;;;12.23;100.00;96487.00;5091020;28;40793;-87
2024/02/09 09:54:01;;;;;;;3.43;1.30;;;;;;;12.68;100.00;96485.69;5091343;28;42975;-86
2024/02/09 09:56:32;;;;;;;2.50;1.50;;;;;;;12.94;100.00;96481.00;5090983;28;43302;-87
2024/02/09 09:59:00;;;;;;;2.47;1.53;;;;;;;13.29;100.00;96479.78;5091029;28;38964;-87
2024/02/09 10:01:29;;;;;;;3.07;1.40;;;;;;;13.54;100.00;96473.38;5091536;28;42284;-87
2024/02/09 10:03:58;;;;;;;3.13;1.37;;;;;;;13.72;100.00;96475.81;5092063;28;45479;-89
2024/02/09 10:06:28;;;;;;;2.20;1.30;;;;;;;13.78;100.00;96468.97;5091834;28;42369;-87
2024/02/09 10:08:55;;;;;;;2.03;1.30;;;;;;;13.88;100.00;96478.38;5091850;28;38943;-88
2024/02/09 10:11:23;;;;;;;2.13;1.50;;;;;;;14.06;100.00;96479.94;5091758;28;42626;-86
2024/02/09 10:13:52;;;;;;;2.50;1.10;;;;;;;14.17;100.00;96474.22;5091765;28;41859;-87
2024/02/09 10:16:21;;;;;;;1.60;1.40;;;;;;;14.28;100.00;96473.81;5091541;28;40665;-86
2024/02/09 10:18:48;;;;;;;4.10;1.37;;;;;;;14.40;100.00;96474.25;5092336;28;40119;-88
2024/02/09 10:21:17;;;;;;;1.80;1.30;;;;;;;14.54;100.00;96479.66;5091740;28;42169;-86
2024/02/09 10:23:46;;;;;;;3.33;1.30;;;;;;;14.62;100.00;96489.41;5108705;28;42765;-88
2024/02/09 10:26:14;;;;;;;3.77;1.53;;;;;;;14.51;100.00;96466.69;5091623;28;42434;-86
2024/02/09 10:28:41;;;;;;;2.60;1.60;;;;;;;14.81;100.00;96493.41;5091872;28;41595;-88
2024/02/09 10:31:10;;;;;;;2.70;1.20;;;;;;;14.79;100.00;96469.63;5089509;28;40487;-87
2024/02/09 10:33:39;;;;;;;2.10;1.27;;;;;;;14.95;100.00;96496.13;5090226;28;42604;-87
2024/02/09 10:36:11;;;;;;;3.17;1.53;;;;;;;14.96;100.00;96483.63;5090088;28;42148;-86
2024/02/09 10:38:40;;;;;;;3.17;1.50;;;;;;;14.97;100.00;96477.25;5090608;28;38883;-88
2024/02/09 10:41:11;;;;;;;2.00;1.40;;;;;;;14.92;100.00;96479.66;5090302;28;40623;-87
2024/02/09 10:43:42;;;;;;;2.67;1.53;;;;;;;14.90;100.00;96487.00;5090451;28;43200;-88
2024/02/09 10:46:10;;;;;;;3.03;1.50;;;;;;;14.93;100.00;96514.13;5090420;28;40833;-88
2024/02/09 10:48:40;;;;;;;5.53;1.40;;;;;;;14.84;100.00;96493.88;5090270;28;39990;-88
2024/02/09 10:51:09;;;;;;;4.30;1.50;;;;;;;14.79;99.50;96500.75;5089915;28;41486;-88
2024/02/09 10:53:49;;;;;;;2.83;1.30;;;;;;;14.78;100.00;96489.28;5089939;28;44494;-87
2024/02/09 10:56:19;;;;;;;2.93;1.63;;;;;;;14.78;100.00;96489.28;5085082;28;41144;-87
2024/02/09 10:58:48;;;;;;;4.17;1.43;;;;;;;14.78;100.00;96488.44;5076496;28;41842;-88
2024/02/09 11:01:16;;;;;;;3.57;1.20;;;;;;;14.78;98.10;96494.59;5077215;28;40605;-89
2024/02/09 11:03:44;;;;;;;3.67;1.60;;;;;;;14.81;97.77;96498.75;5077838;28;41621;-88
2024/02/09 11:06:12;;;;;;;2.70;1.87;;;;;;;14.67;98.40;96469.22;5111502;28;42244;-89
2024/02/09 11:08:40;;;;;;;2.87;1.17;;;;;;;14.78;98.48;96472.47;5077758;28;38859;-91
2024/02/09 11:11:10;;;;;;;2.60;1.20;;;;;;;14.80;97.49;96483.78;5077697;28;40930;-87
2024/02/09 11:13:38;;;;;;;4.07;1.80;;;;;;;14.79;96.39;96472.28;5098587;28;43376;-89
2024/02/09 11:16:07;;;;;;;4.43;1.50;;;;;;;14.85;95.05;96478.72;5078688;28;41327;-89
2024/02/09 11:18:37;;;;;;;3.20;1.20;;;;;;;14.74;95.15;96462.16;5077740;28;40296;-89
2024/02/09 11:21:06;;;;;;;2.37;1.60;;;;;;;14.76;94.97;96469.13;5077510;28;41096;-89
2024/02/09 11:23:34;;;;;;;2.70;1.37;;;;;;;14.74;94.14;96453.34;5077512;28;41625;-90
2024/02/09 11:26:04;;;;;;;2.13;1.47;;;;;;;14.90;93.76;96481.66;5075478;28;42390;-89
2024/02/09 11:28:34;;;;;;;5.07;1.90;;;;;;;14.83;94.51;96443.44;5077468;28;39133;-90
2024/02/09 11:31:02;;;;;;;3.33;1.53;;;;;;;15.32;94.03;96459.75;5074765;28;42306;-89
2024/02/09 11:33:30;;;;;;;3.07;1.50;;;;;;;15.69;92.85;96466.84;5059603;28;41685;-90
2024/02/09 11:35:59;;;;;;;4.20;1.47;;;;;;;16.08;90.81;96466.47;5076118;28;42764;-90
2024/02/09 11:38:26;;;;;;;3.60;1.67;;;;;;;16.30;89.00;96437.97;5075710;28;39041;-90
2024/02/09 11:40:57;;;;;;;2.70;1.40;;;;;;;16.66;86.44;96444.09;5076020;28;40636;-90
2024/02/09 11:43:25;;;;;;;4.87;1.90;;;;;;;16.75;84.78;96426.91;5075366;28;41385;-89
2024/02/09 11:45:56;;;;;;;3.37;1.50;;;;;;;17.05;83.80;96442.75;5074248;28;41144;-90
2024/02/09 11:48:24;;;;;;;4.87;1.63;;;;;;;17.26;80.92;96472.09;5075619;28;39948;-90
2024/02/09 11:50:57;;;;;;;3.60;1.50;;;;;;;17.78;81.28;96450.19;5075365;28;40964;-91
2024/02/09 11:53:26;;;;;;;2.47;1.10;;;;;;;18.89;78.46;96456.84;5075683;28;43687;-91
2024/02/09 11:55:54;;;;;;;2.93;1.50;;;;;;;19.72;72.41;96460.66;5075826;28;42665;-90
2024/02/09 11:58:21;;;;;;;4.60;1.53;;;;;;;20.43;67.79;96455.19;5075846;28;39307;-89
2024/02/09 12:00:50;;;;;;;2.80;1.50;;;;;;;22.04;64.76;96470.56;5075778;28;41342;-92
2024/02/09 12:03:19;;;;;;;3.03;1.63;;;;;;;24.45;58.30;96462.38;5076953;28;42850;-91
2024/02/09 12:05:50;;;;;;;2.57;1.57;;;;;;;27.35;51.51;96487.00;5076304;28;41886;-91
2024/02/09 12:08:19;;;;;;;3.13;1.50;;;;;;;29.24;42.28;96522.22;5072822;28;40194;-92
2024/02/09 12:10:46;;;;;;;3.38;1.38;;;;;;;29.57;40.36;96535.34;5075461;28;41570;-90
2024/02/09 12:13:15;;;;;;;2.42;1.20;;;;;;;31.15;36.70;96554.06;5075118;28;41774;-91
2024/02/09 12:15:43;;;;;;;2.60;1.13;;;;;;;30.63;37.53;96522.63;5073074;28;42495;-88
2024/02/09 12:18:11;;;;;;;3.50;1.33;;;;;;;28.64;39.74;96499.19;5075059;28;39303;-92
2024/02/09 12:20:41;;;;;;;2.93;1.23;;;;;;;27.01;41.31;96507.34;5108623;28;40820;-91
2024/02/09 12:23:09;;;;;;;3.53;1.37;;;;;;;25.53;44.79;96465.84;5074175;28;43513;-91
2024/02/09 12:25:38;;;;;;;3.13;1.30;;;;;;;24.48;45.87;96463.78;5074363;28;41792;-92
2024/02/09 12:28:09;;;;;;;2.63;1.70;;;;;;;23.55;47.06;96453.97;5073923;28;38700;-89
2024/02/09 12:30:37;;;;;;;1.70;1.33;;;;;;;22.68;47.56;96458.28;5073774;28;41810;-92
2024/02/09 12:33:05;;;;;;;1.90;1.40;;;;;;;22.03;49.33;96468.91;5074440;28;42298;-93
2024/02/09 12:35:34;;;;;;;2.50;1.40;;;;;;;21.35;51.14;96439.38;5074324;28;41040;-91
2024/02/09 12:38:04;;;;;;;3.30;1.40;;;;;;;20.56;52.67;96380.84;5071886;28;39774;-95
2024/02/09 12:40:33;;;;;;;2.83;1.50;;;;;;;20.36;54.23;96416.78;5074441;28;42272;-91
2024/02/09 12:43:01;;;;;;;2.37;1.00;;;;;;;19.82;54.33;96389.56;5073578;28;41666;-91
2024/02/09 12:45:31;;;;;;;2.13;1.13;;;;;;;19.63;54.61;96424.34;5073691;28;43398;-90
2024/02/09 12:47:58;;;;;;;1.80;1.10;;;;;;;19.30;54.76;96423.56;5073717;28;39582;-90
2024/02/09 12:50:26;;;;;;;2.63;1.47;;;;;;;18.93;56.92;96395.56;5074299;28;41904;-90
2024/02/09 12:52:54;;;;;;;2.77;1.53;;;;;;;18.75;57.85;96401.56;5060690;28;41836;-93
2024/02/09 12:55:24;;;;;;;1.10;1.00;;;;;;;18.43;58.03;96407.69;5074565;28;42312;-92
2024/02/09 12:57:52;;;;;;;3.23;1.50;;;;;;;17.87;58.73;96351.78;5073714;28;40952;-89
2024/02/09 13:00:21;;;;;;;4.17;1.50;;;;;;;17.91;59.26;96417.28;5074302;28;40783;-91
2024/02/09 13:02:49;;;;;;;4.33;1.70;;;;;;;17.64;60.92;96410.19;5074419;28;41717;-90
2024/02/09 13:05:17;;;;;;;1.57;1.20;;;;;;;17.14;61.26;96364.03;5075165;28;42406;-90
2024/02/09 13:07:45;;;;;;;2.53;1.57;;;;;;;17.23;62.19;96398.41;5074614;28;40110;-88
2024/02/09 13:10:15;;;;;;;4.47;1.40;;;;;;;16.87;62.36;96374.56;5074851;28;40852;-88
2024/02/09 13:12:44;;;;;;;2.77;1.27;;;;;;;16.76;63.27;96383.13;5074161;28;41892;-93
2024/02/09 13:15:13;;;;;;;3.77;1.73;;;;;;;16.67;64.64;96389.63;5074156;28;42333;-90
2024/02/09 13:17:41;;;;;;;2.77;1.13;;;;;;;16.59;65.75;96400.41;5079277;28;40077;-91
2024/02/09 13:20:12;;;;;;;3.30;1.17;;;;;;;16.19;65.02;96353.88;5073787;28;42466;-90
2024/02/09 13:22:40;;;;;;;4.07;1.30;;;;;;;16.15;65.83;96344.56;5071894;28;41551;-91
2024/02/09 13:25:13;;;;;;;2.20;1.40;;;;;;;16.49;66.79;96383.91;5073936;28;41029;-90
2024/02/09 13:27:42;;;;;;;4.10;1.30;;;;;;;16.43;65.96;96384.69;5072951;28;39024;-88
2024/02/09 13:30:12;;;;;;;1.10;1.00;;;;;;;16.51;66.47;96388.03;5072947;28;40643;-90
2024/02/09 13:32:40;;;;;;;2.77;1.27;;;;;;;16.61;67.08;96393.03;5072327;28;43017;-88
2024/02/09 13:35:11;;;;;;;1.67;1.20;;;;;;;16.56;66.33;96366.09;5073500;28;43609;-88
2024/02/09 13:37:41;;;;;;;2.33;1.37;;;;;;;16.62;66.38;96369.81;5069071;28;41125;-93
2024/02/09 13:40:11;;;;;;;5.40;1.40;;;;;;;16.79;67.61;96374.72;5066904;28;42315;-91
2024/02/09 13:42:39;;;;;;;3.33;1.77;;;;;;;16.83;66.58;96380.47;5072323;28;43164;-90
2024/02/09 13:45:09;;;;;;;2.50;1.17;;;;;;;16.83;67.14;96359.09;5071571;28;43546;-91
2024/02/09 13:47:38;;;;;;;2.97;1.33;;;;;;;16.91;66.64;96376.84;5071530;28;39129;-89
2024/02/09 13:50:07;;;;;;;3.60;1.47;;;;;;;16.97;66.64;96376.03;5091556;28;41784;-89
2024/02/09 13:52:35;;;;;;;2.43;1.37;;;;;;;16.85;65.20;96359.72;5073254;28;43849;-90
2024/02/09 13:55:03;;;;;;;2.57;1.27;;;;;;;16.95;65.20;96360.19;5074392;28;41290;-90
2024/02/09 13:57:32;;;;;;;1.33;1.20;;;;;;;16.94;64.68;96365.75;5074683;28;39854;-88
2024/02/09 14:00:03;;;;;;;2.13;1.20;;;;;;;16.84;65.16;96345.53;5074111;28;40768;-88
2024/02/09 14:02:31;;;;;;;3.77;1.70;;;;;;;17.00;65.50;96381.84;5092634;28;42115;-90
2024/02/09 14:05:00;;;;;;;2.73;1.23;;;;;;;16.72;65.06;96336.41;5075097;28;41112;-90
2024/02/09 14:07:28;;;;;;;2.30;1.30;;;;;;;16.64;66.04;96307.19;5075035;28;40105;-91
2024/02/09 14:09:56;;;;;;;3.60;1.20;;;;;;;16.95;65.24;96360.19;5074739;28;42784;-89
2024/02/09 14:12:25;;;;;;;2.43;1.40;;;;;;;16.94;65.39;96363.88;5074793;28;44043;-89
2024/02/09 14:14:52;;;;;;;2.80;1.57;;;;;;;16.92;65.03;96367.81;5056015;28;41505;-92
2024/02/09 14:17:20;;;;;;;2.67;1.40;;;;;;;16.66;64.43;96339.06;5073906;28;38694;-92
2024/02/09 14:19:48;;;;;;;3.60;1.40;;;;;;;16.73;65.12;96366.63;5073470;28;42025;-92
2024/02/09 14:22:18;;;;;;;2.50;1.30;;;;;;;16.68;65.39;96364.56;5073730;28;43870;-91
2024/02/09 14:24:46;;;;;;;2.70;1.60;;;;;;;16.72;65.31;96384.50;5073255;28;41326;-91
2024/02/09 14:27:15;;;;;;;3.27;1.43;;;;;;;16.62;65.62;96367.16;5073736;28;40529;-92
2024/02/09 14:29:45;;;;;;;2.53;1.37;;;;;;;16.45;65.85;96359.41;5073179;28;41840;-91
2024/02/09 14:32:13;;;;;;;2.57;1.50;;;;;;;16.13;66.68;96320.72;5074957;28;43895;-91
2024/02/09 14:34:41;;;;;;;3.27;1.43;;;;;;;16.23;66.68;96340.94;5077307;28;40982;-90
2024/02/09 14:37:09;;;;;;;2.60;1.40;;;;;;;16.15;67.60;96336.56;5077222;28;38526;-91
2024/02/09 14:39:38;;;;;;;3.33;1.60;;;;;;;16.22;67.44;96360.63;5076865;28;40635;-92
2024/02/09 14:42:08;;;;;;;2.03;1.43;;;;;;;16.00;67.99;96325.94;5084378;28;41911;-91
2024/02/09 14:44:36;;;;;;;4.10;1.30;;;;;;;16.09;67.88;96338.16;5089302;28;41554;-91
2024/02/09 14:47:04;;;;;;;2.03;1.27;;;;;;;16.08;68.19;96325.81;5089167;28;38847;-91
2024/02/09 14:49:33;;;;;;;3.30;1.50;;;;;;;16.33;68.30;96365.47;5091102;28;41599;-91
2024/02/09 14:52:02;;;;;;;5.80;1.67;;;;;;;16.20;67.97;96352.81;5091089;28;41552;-92
2024/02/09 14:54:30;;;;;;;2.10;1.53;;;;;;;16.07;68.14;96331.38;5090864;28;41114;-90
2024/02/09 14:57:00;;;;;;;2.60;1.30;;;;;;;16.16;68.95;96341.72;5087441;28;40896;-92
2024/02/09 14:59:27;;;;;;;3.20;1.50;;;;;;;16.08;68.95;96333.81;5076334;28;40767;-93
2024/02/09 15:01:55;;;;;;;2.63;1.20;;;;;;;16.02;69.01;96328.44;5077487;28;41792;-90
2024/02/09 15:04:23;;;;;;;2.30;1.30;;;;;;;15.84;69.08;96326.19;5077403;28;41093;-92
2024/02/09 15:06:52;;;;;;;5.57;1.60;;;;;;;15.55;69.22;96287.13;5077928;28;40098;-93
2024/02/09 15:09:20;;;;;;;4.30;1.50;;;;;;;15.87;69.54;96347.19;5077622;28;42250;-91
2024/02/09 15:11:49;;;;;;;3.07;1.50;;;;;;;15.76;69.78;96340.50;5077280;28;42650;-91
2024/02/09 15:14:19;;;;;;;3.07;1.43;;;;;;;15.77;70.57;96341.31;5076322;28;41229;-92
2024/02/09 15:16:47;;;;;;;2.40;1.50;;;;;;;15.50;70.49;96308.16;5075368;28;39321;-92
2024/02/09 15:19:14;;;;;;;3.30;1.50;;;;;;;15.62;70.58;96333.38;5076000;28;40881;-91
2024/02/09 15:21:43;;;;;;;2.37;1.30;;;;;;;15.54;71.26;96313.97;5075963;28;42078;-90
2024/02/09 15:24:11;;;;;;;1.07;0.97;;;;;;;15.66;71.73;96337.31;5076240;28;42512;-91
2024/02/09 15:26:39;;;;;;;4.03;1.73;;;;;;;15.52;71.30;96327.50;5075796;28;38804;-92
2024/02/09 15:29:07;;;;;;;3.80;1.60;;;;;;;15.44;71.80;96320.44;5075345;28;43724;-91
2024/02/09 15:31:38;;;;;;;3.73;1.60;;;;;;;15.41;72.44;96326.13;5075195;28;43752;-91
2024/02/09 15:34:05;;;;;;;4.23;1.50;;;;;;;15.38;73.00;96325.69;5075675;28;42914;-92
2024/02/09 15:36:34;;;;;;;1.70;1.27;;;;;;;15.26;72.81;96314.66;5076367;28;38924;-91
2024/02/09 15:39:03;;;;;;;1.47;1.13;;;;;;;15.16;73.23;96310.66;5075552;28;40834;-91
2024/02/09 15:41:30;;;;;;;3.80;1.53;;;;;;;15.15;73.36;96327.66;5075450;28;42196;-90
2024/02/09 15:43:58;;;;;;;2.60;1.43;;;;;;;15.06;74.12;96317.09;5075120;28;42636;-90
2024/02/09 15:46:26;;;;;;;2.57;1.73;;;;;;;14.68;74.58;96271.09;5075491;28;39223;-91
2024/02/09 15:48:55;;;;;;;4.30;1.50;;;;;;;14.93;75.05;96308.13;5075176;28;42628;-90
2024/02/09 15:51:23;;;;;;;3.13;1.23;;;;;;;14.84;75.59;96318.00;5075191;28;41684;-91
2024/02/09 15:53:57;;;;;;;2.50;1.57;;;;;;;14.79;75.88;96304.44;5075602;28;41301;-91
2024/02/09 15:56:31;;;;;;;3.33;1.63;;;;;;;14.82;76.61;96320.06;5075405;28;40333;-90
2024/02/09 15:59:00;;;;;;;3.60;1.50;;;;;;;14.60;76.80;96289.81;5075421;28;40901;-90
2024/02/09 16:01:33;;;;;;;3.20;1.40;;;;;;;14.59;77.81;96298.00;5076140;28;42063;-91
2024/02/09 16:04:02;;;;;;;2.30;1.53;;;;;;;14.55;77.82;96300.22;5076668;28;41444;-90
2024/02/09 16:06:30;;;;;;;1.63;1.30;;;;;;;14.54;78.42;96301.22;5076310;28;39095;-91
2024/02/09 16:08:59;;;;;;;2.13;1.70;;;;;;;14.54;78.73;96301.22;5092426;28;42022;-90
2024/02/09 16:11:31;;;;;;;2.30;1.60;;;;;;;14.41;78.98;96285.03;5075991;28;42871;-92
2024/02/09 16:13:59;;;;;;;2.13;1.60;;;;;;;14.32;79.07;96278.97;5076052;28;43755;-92
2024/02/09 16:16:28;;;;;;;1.77;1.30;;;;;;;14.35;79.78;96289.22;5076070;28;38634;-91
2024/02/09 16:18:56;;;;;;;2.50;1.30;;;;;;;14.26;79.91;96284.16;5075975;28;41054;-91
2024/02/09 16:21:25;;;;;;;2.33;1.40;;;;;;;14.32;79.89;96294.09;5076148;28;41578;-90
2024/02/09 16:23:53;;;;;;;1.97;1.40;;;;;;;14.16;80.24;96284.44;5076039;28;41136;-91
2024/02/09 16:26:22;;;;;;;2.63;1.30;;;;;;;14.09;80.33;96280.84;5073974;28;38939;-90
2024/02/09 16:28:50;;;;;;;2.23;1.43;;;;;;;14.17;80.38;96295.91;5091596;28;41853;-90
2024/02/09 16:31:19;;;;;;;3.23;1.30;;;;;;;14.18;80.46;96297.56;5074687;28;41684;-91
2024/02/09 16:33:46;;;;;;;1.97;1.50;;;;;;;13.97;81.28;96271.66;5074789;28;43730;-91
2024/02/09 16:36:20;;;;;;;1.53;1.30;;;;;;;13.99;81.31;96289.06;5075285;28;39073;-91
2024/02/09 16:38:50;;;;;;;1.73;1.30;;;;;;;13.97;81.61;96288.41;5075353;28;42342;-90
2024/02/09 16:41:19;;;;;;;2.57;1.20;;;;;;;14.02;81.68;96301.19;5074812;28;43884;-91
2024/02/09 16:43:47;;;;;;;2.60;1.20;;;;;;;13.68;82.16;96258.25;5075229;28;41343;-90
2024/02/09 16:46:14;;;;;;;2.47;1.40;;;;;;;13.85;82.14;96287.19;5074769;28;38988;-90
2024/02/09 16:48:46;;;;;;;2.43;1.40;;;;;;;13.88;82.19;96299.31;5074718;28;41562;-91
2024/02/09 16:51:14;;;;;;;3.23;1.50;;;;;;;13.84;82.62;96296.19;5074294;28;42045;-91
2024/02/09 16:53:43;;;;;;;4.27;1.67;;;;;;;13.87;82.78;96310.94;5074307;28;41215;-88
2024/02/09 16:56:13;;;;;;;2.70;1.30;;;;;;;13.69;82.90;96287.34;5074309;28;38987;-91
2024/02/09 16:58:41;;;;;;;1.93;1.53;;;;;;;13.85;83.58;96327.09;5074828;28;42033;-91
2024/02/09 17:01:09;;;;;;;3.17;2.23;;;;;;;13.71;84.42;96319.91;5074707;28;43138;-90
2024/02/09 17:03:36;;;;;;;3.07;2.50;;;;;;;13.78;84.59;96341.28;5075844;28;41219;-91
2024/02/09 17:06:05;;;;;;;4.70;3.20;;;;;;;13.66;84.61;96322.25;5075469;28;39021;-90
2024/02/09 17:08:33;;;;;;;6.13;2.23;;;;;;;13.79;84.80;96334.97;5075445;28;40258;-91
2024/02/09 17:11:01;;;;;;;2.03;1.50;;;;;;;13.55;85.11;96309.38;5075098;28;41461;-90
2024/02/09 17:13:31;;;;;;;4.00;1.77;;;;;;;13.65;85.18;96326.75;5073781;28;42664;-90
2024/02/09 17:15:58;;;;;;;5.03;1.60;;;;;;;13.66;85.26;96328.41;5074048;28;40026;-91
2024/02/09 17:18:26;;;;;;;1.73;1.13;;;;;;;13.72;86.03;96336.69;5074399;28;41733;-91
2024/02/09 17:20:54;;;;;;;3.30;1.27;;;;;;;13.66;86.55;96328.41;5073950;28;41934;-90
2024/02/09 17:23:21;;;;;;;3.00;1.20;;;;;;;13.50;87.93;96335.66;5078130;28;41113;-90
2024/02/09 17:25:50;;;;;;;4.53;1.50;;;;;;;13.47;88.73;96338.69;5077195;28;41018;-90
2024/02/09 17:28:18;;;;;;;1.77;1.40;;;;;;;13.36;89.07;96325.75;5077692;28;41017;-90
2024/02/09 17:30:47;;;;;;;2.77;1.27;;;;;;;13.25;89.71;96317.19;5074017;28;43830;-91
2024/02/09 17:33:17;;;;;;;2.37;1.47;;;;;;;13.21;90.34;96318.56;5074343;28;41643;-91
2024/02/09 17:35:46;;;;;;;3.87;1.90;;;;;;;13.23;91.32;96340.44;5074065;28;38887;-91
2024/02/09 17:38:13;;;;;;;3.80;1.40;;;;;;;13.28;91.69;96361.19;5073992;28;43580;-90
2024/02/09 17:40:41;;;;;;;1.50;1.30;;;;;;;13.14;93.63;96332.66;5073711;28;42652;-91
2024/02/09 17:43:10;;;;;;;3.47;1.80;;;;;;;12.98;94.59;96327.44;5074289;28;40957;-92
2024/02/09 17:45:38;;;;;;;3.40;1.80;;;;;;;13.01;95.93;96338.53;5073610;28;41638;-93
2024/02/09 17:48:08;;;;;;;3.50;1.77;;;;;;;12.92;96.87;96337.72;5074659;28;41072;-92
2024/02/09 17:50:35;;;;;;;2.60;1.63;;;;;;;12.90;99.22;96347.69;5075277;28;41719;-91
2024/02/09 17:53:04;;;;;;;3.63;1.50;;;;;;;12.74;100.00;96336.28;5075367;28;41117;-93
2024/02/09 17:55:32;;;;;;;1.57;1.30;;;;;;;12.49;100.00;96312.47;5073885;28;41278;-91
2024/02/09 17:57:59;;;;;;;2.17;1.63;;;;;;;12.57;100.00;96340.84;5074067;28;41002;-91
2024/02/09 18:00:27;;;;;;;3.17;1.70;;;;;;;12.55;100.00;96354.28;5073526;28;42930;-90
2024/02/09 18:02:56;;;;;;;2.53;1.80;;;;;;;12.28;100.00;96314.84;5058009;28;42214;-89
2024/02/09 18:05:25;;;;;;;3.60;1.57;;;;;;;12.52;100.00;96354.59;5074649;28;39599;-91
2024/02/09 18:07:53;;;;;;;1.70;1.60;;;;;;;12.54;100.00;96376.50;5077840;28;42170;-90
2024/02/09 18:10:21;;;;;;;2.23;1.50;;;;;;;12.38;100.00;96352.63;5078541;28;43227;-91
2024/02/09 18:12:49;;;;;;;2.00;1.63;;;;;;;12.49;100.00;96376.16;5078278;28;41593;-91
2024/02/09 18:15:19;;;;;;;3.00;1.97;;;;;;;12.10;100.00;96322.19;5075933;28;38814;-89
2024/02/09 18:17:49;;;;;;;1.80;1.47;;;;;;;12.37;100.00;96361.59;5076929;28;40603;-89
2024/02/09 18:20:17;;;;;;;2.60;1.57;;;;;;;12.37;100.00;96364.25;5077036;28;43478;-88
2024/02/09 18:22:46;;;;;;;3.77;1.70;;;;;;;12.42;100.00;96375.19;5076932;28;41705;-87
2024/02/09 18:25:15;;;;;;;6.80;2.17;;;;;;;12.30;100.00;96371.22;5076680;28;40029;-87
2024/02/09 18:27:42;;;;;;;3.13;1.70;;;;;;;12.21;100.00;96353.66;5076877;28;42698;-88
2024/02/09 18:30:11;;;;;;;3.70;1.70;;;;;;;12.33;100.00;96376.22;5076810;28;42873;-88
2024/02/09 18:32:40;;;;;;;4.47;1.90;;;;;;;12.27;100.00;96368.91;5076892;28;44336;-86
2024/02/09 18:35:08;;;;;;;2.13;1.80;;;;;;;12.17;100.00;96345.19;5075504;28;38765;-87
2024/02/09 18:37:37;;;;;;;2.30;1.70;;;;;;;12.25;100.00;96362.94;5076449;28;42290;-87
2024/02/09 18:40:08;;;;;;;3.37;2.37;;;;;;;12.22;100.00;96357.97;5075643;28;42441;-85
2024/02/09 18:42:36;;;;;;;1.67;1.57;;;;;;;12.23;100.00;96359.63;5075759;28;42810;-86
2024/02/09 18:45:08;;;;;;;3.13;2.40;;;;;;;12.21;100.00;96365.09;5074719;28;39230;-85
2024/02/09 18:47:35;;;;;;;2.40;1.60;;;;;;;12.05;100.00;96335.94;5076031;28;40751;-86
2024/02/09 18:50:03;;;;;;;2.00;1.77;;;;;;;12.20;100.00;96370.56;5076267;28;41689;-85
2024/02/09 18:52:31;;;;;;;1.90;1.80;;;;;;;12.14;100.00;96364.09;5076387;28;42818;-86
2024/02/09 18:54:59;;;;;;;5.17;3.67;;;;;;;12.17;100.00;96370.91;5092879;28;41975;-86
2024/02/09 18:57:28;;;;;;;4.73;2.70;;;;;;;12.11;100.00;96364.44;5076427;28;42409;-84
2024/02/09 18:59:55;;;;;;;4.30;2.90;;;;;;;12.19;100.00;96374.22;5075934;28;44273;-83
2024/02/09 19:02:23;;;;;;;4.07;2.93;;;;;;;12.17;100.00;96370.91;5095309;28;42318;-84
2024/02/09 19:04:50;;;;;;;2.63;2.37;;;;;;;12.10;100.00;96372.56;5060178;28;38813;-82
2024/02/09 19:07:18;;;;;;;3.20;1.67;;;;;;;12.13;100.00;96375.69;5094311;28;42321;-83
2024/02/09 19:09:45;;;;;;;1.90;1.57;;;;;;;12.04;100.00;96366.09;5077259;28;43085;-83
2024/02/09 19:12:13;;;;;;;1.70;1.60;;;;;;;12.10;100.00;96376.06;5077105;28;43181;-83
2024/02/09 19:14:44;;;;;;;5.00;2.50;;;;;;;11.97;100.00;96343.91;5077142;28;40017;-83
2024/02/09 19:17:13;;;;;;;2.43;2.10;;;;;;;12.02;100.00;96354.81;5090644;28;41765;-83
2024/02/09 19:19:41;;;;;;;3.97;3.10;;;;;;;11.90;100.00;96336.75;5076608;28;41655;-82
2024/02/09 19:22:08;;;;;;;4.00;3.53;;;;;;;12.03;100.00;96375.03;5077723;28;41966;-82
2024/02/09 19:24:37;;;;;;;5.23;3.20;;;;;;;11.96;100.00;96357.31;5076925;28;38828;-84
2024/02/09 19:27:09;;;;;;;3.53;2.40;;;;;;;11.95;100.00;96361.78;5076793;28;42397;-83
2024/02/09 19:29:36;;;;;;;2.33;1.90;;;;;;;12.06;100.00;96365.94;5076360;28;42912;-84
2024/02/09 19:32:06;;;;;;;5.60;3.70;;;;;;;12.07;100.00;96375.56;5091934;28;42150;-84
2024/02/09 19:34:34;;;;;;;3.43;2.63;;;;;;;12.04;100.00;96366.09;5075902;28;42024;-82
2024/02/09 19:37:02;;;;;;;2.30;2.10;;;;;;;12.07;100.00;96370.25;5092492;28;42614;-83
